createdAt,value
2022-09-06T00:00:30.552Z,1.10
2022-09-06T00:03:01.158Z,1.05
2022-09-06T00:05:30.193Z,0.93
2022-09-06T00:08:00.602Z,1.02
2022-09-06T00:10:30.722Z,1.00
2022-09-06T00:13:03.409Z,1.00
2022-09-06T00:15:32.112Z,0.95
2022-09-06T00:18:03.785Z,1.10
2022-09-06T00:20:34.640Z,1.23
2022-09-06T00:23:05.663Z,0.98
2022-09-06T00:25:34.780Z,1.00
2022-09-06T00:28:06.721Z,1.10
2022-09-06T00:30:35.714Z,1.10
2022-09-06T00:33:05.402Z,1.20
2022-09-06T00:35:33.824Z,1.00
2022-09-06T00:38:03.314Z,1.00
2022-09-06T00:40:36.202Z,1.05
2022-09-06T00:43:04.395Z,0.90
2022-09-06T00:45:33.386Z,1.20
2022-09-06T00:48:06.188Z,1.30
2022-09-06T00:50:34.885Z,1.23
2022-09-06T00:53:03.290Z,1.20
2022-09-06T00:55:31.505Z,1.33
2022-09-06T00:57:59.733Z,1.17
2022-09-06T01:00:27.943Z,1.23
2022-09-06T01:02:56.215Z,1.25
2022-09-06T01:05:34.386Z,1.10
2022-09-06T01:08:15.100Z,0.95
2022-09-06T01:11:27.863Z,1.10
2022-09-06T01:14:07.692Z,1.10
2022-09-06T01:16:45.299Z,1.10
2022-09-06T01:19:48.858Z,1.10
2022-09-06T01:22:44.667Z,1.20
2022-09-06T01:25:36.995Z,1.05
2022-09-06T01:28:35.183Z,1.10
2022-09-06T01:31:21.209Z,1.02
2022-09-06T01:34:12.273Z,1.00
2022-09-06T01:37:08.295Z,1.00
2022-09-06T01:39:37.862Z,1.05
2022-09-06T01:42:11.429Z,1.08
2022-09-06T01:44:43.787Z,1.20
2022-09-06T01:47:24.043Z,1.30
2022-09-06T01:50:21.191Z,1.40
2022-09-06T01:53:03.129Z,1.30
2022-09-06T01:55:36.622Z,1.20
2022-09-06T01:58:34.606Z,1.20
2022-09-06T02:01:15.553Z,1.13
2022-09-06T02:03:55.250Z,1.30
2022-09-06T02:06:28.722Z,1.13
2022-09-06T02:09:04.755Z,1.30
2022-09-06T02:11:39.983Z,1.17
2022-09-06T02:14:14.126Z,1.30
2022-09-06T02:16:47.261Z,1.08
2022-09-06T02:19:22.299Z,1.30
2022-09-06T02:21:53.246Z,1.35
2022-09-06T02:24:27.521Z,1.27
2022-09-06T02:26:55.962Z,1.30
2022-09-06T02:29:24.874Z,1.30
2022-09-06T02:32:00.515Z,1.50
2022-09-06T02:34:29.097Z,1.48
2022-09-06T02:36:57.709Z,1.60
2022-09-06T02:39:26.018Z,1.65
2022-09-06T02:41:54.755Z,1.63
2022-09-06T02:44:26.403Z,1.45
2022-09-06T02:46:57.298Z,1.40
2022-09-06T02:49:25.825Z,1.38
2022-09-06T02:51:54.054Z,1.40
2022-09-06T02:54:22.283Z,1.33
2022-09-06T02:56:52.464Z,1.33
2022-09-06T02:59:20.884Z,1.48
2022-09-06T03:01:49.214Z,1.60
2022-09-06T03:04:18.928Z,1.45
2022-09-06T03:06:47.107Z,1.30
2022-09-06T03:09:15.298Z,1.48
2022-09-06T03:11:43.645Z,1.40
2022-09-06T03:14:11.876Z,1.70
2022-09-06T03:16:40.199Z,1.42
2022-09-06T03:19:08.570Z,1.77
2022-09-06T03:21:38.128Z,1.40
2022-09-06T03:24:06.906Z,1.40
2022-09-06T03:26:35.098Z,1.40
2022-09-06T03:29:03.393Z,1.70
2022-09-06T03:31:31.715Z,1.42
2022-09-06T03:34:00.006Z,1.90
2022-09-06T03:36:28.194Z,1.40
2022-09-06T03:38:58.284Z,1.67
2022-09-06T03:41:26.475Z,1.60
2022-09-06T03:43:54.679Z,1.40
2022-09-06T03:46:22.973Z,1.38
2022-09-06T03:48:51.298Z,1.40
2022-09-06T03:51:20.050Z,1.60
2022-09-06T03:53:48.559Z,1.20
2022-09-06T03:56:18.307Z,1.60
2022-09-06T03:58:47.692Z,1.48
2022-09-06T04:01:16.060Z,1.63
2022-09-06T04:03:44.347Z,1.65
2022-09-06T04:06:13.218Z,1.80
2022-09-06T04:08:41.752Z,1.73
2022-09-06T04:11:10.554Z,1.65
2022-09-06T04:13:40.382Z,1.63
2022-09-06T04:16:08.659Z,2.00
2022-09-06T04:18:36.958Z,2.00
2022-09-06T04:21:06.382Z,1.80
2022-09-06T04:23:39.257Z,1.70
2022-09-06T04:26:08.312Z,1.73
2022-09-06T04:28:36.638Z,1.92
2022-09-06T04:31:06.833Z,1.90
2022-09-06T04:33:37.115Z,1.75
2022-09-06T04:36:08.926Z,1.70
2022-09-06T04:38:39.394Z,2.10
2022-09-06T04:41:08.732Z,1.90
2022-09-06T04:43:37.050Z,1.90
2022-09-06T04:46:11.573Z,2.20
2022-09-06T04:48:39.875Z,2.08
2022-09-06T04:51:08.163Z,1.88
2022-09-06T04:53:36.525Z,1.95
2022-09-06T04:56:04.822Z,1.70
2022-09-06T04:58:33.534Z,1.90
2022-09-06T05:01:01.918Z,1.63
2022-09-06T05:03:31.555Z,1.70
2022-09-06T05:06:08.350Z,1.67
2022-09-06T05:08:39.279Z,1.75
2022-09-06T05:11:08.892Z,2.00
2022-09-06T05:13:38.059Z,1.90
2022-09-06T05:16:09.011Z,2.13
2022-09-06T05:18:38.676Z,2.38
2022-09-06T05:21:07.669Z,2.47
2022-09-06T05:23:36.646Z,2.67
2022-09-06T05:26:05.146Z,2.67
2022-09-06T05:28:33.376Z,2.63
2022-09-06T05:31:09.584Z,2.55
2022-09-06T05:33:39.461Z,2.17
2022-09-06T05:36:08.964Z,2.00
2022-09-06T05:38:37.203Z,2.00
2022-09-06T05:41:05.776Z,2.33
2022-09-06T05:43:33.995Z,2.60
2022-09-06T05:46:02.250Z,2.65
2022-09-06T05:48:36.024Z,2.35
2022-09-06T05:51:09.516Z,2.33
2022-09-06T05:53:40.126Z,2.15
2022-09-06T05:56:10.084Z,2.28
2022-09-06T05:58:39.040Z,2.50
2022-09-06T06:01:14.277Z,2.58
2022-09-06T06:03:43.300Z,2.70
2022-09-06T06:06:13.007Z,2.30
2022-09-06T06:08:41.269Z,2.28
2022-09-06T06:11:09.921Z,2.30
2022-09-06T06:13:39.670Z,2.28
2022-09-06T06:16:08.693Z,2.20
2022-09-06T06:18:37.291Z,2.10
2022-09-06T06:21:12.170Z,2.30
2022-09-06T06:23:41.399Z,2.08
2022-09-06T06:26:11.085Z,2.10
2022-09-06T06:28:39.892Z,2.10
2022-09-06T06:31:10.594Z,2.10
2022-09-06T06:33:39.376Z,2.20
2022-09-06T06:36:23.286Z,2.08
2022-09-06T06:38:54.089Z,2.28
2022-09-06T06:41:24.974Z,2.05
2022-09-06T06:43:54.206Z,2.30
2022-09-06T06:46:24.723Z,2.20
2022-09-06T06:48:55.254Z,2.20
2022-09-06T06:51:28.232Z,2.20
2022-09-06T06:53:57.796Z,2.00
2022-09-06T06:56:28.181Z,2.38
2022-09-06T06:58:58.687Z,2.33
2022-09-06T07:01:29.296Z,2.25
2022-09-06T07:03:58.108Z,2.42
2022-09-06T07:09:18.439Z,2.42
2022-09-06T07:11:48.610Z,2.30
2022-09-06T07:14:17.046Z,2.15
2022-09-06T07:16:45.964Z,2.40
2022-09-06T07:22:05.726Z,2.40
2022-09-06T07:24:34.859Z,2.45
2022-09-06T07:29:51.373Z,2.30
2022-09-06T07:32:19.570Z,2.00
2022-09-06T07:34:47.785Z,2.40
2022-09-06T07:37:17.552Z,2.53
2022-09-06T07:39:45.914Z,2.78
2022-09-06T07:42:14.141Z,2.63
2022-09-06T07:44:42.413Z,2.92
2022-09-06T07:55:38.409Z,3.20
2022-09-06T07:58:07.298Z,3.08
2022-09-06T08:00:36.527Z,3.05
2022-09-06T08:03:04.931Z,3.33
2022-09-06T08:11:11.373Z,2.83
2022-09-06T08:13:39.706Z,2.53
2022-09-06T08:16:11.407Z,2.40
2022-09-06T08:18:39.875Z,2.67
2022-09-06T08:21:12.579Z,2.80
2022-09-06T08:23:47.031Z,2.90
2022-09-06T08:26:15.558Z,2.40
2022-09-06T08:28:44.003Z,3.05
2022-09-06T08:31:14.395Z,2.35
2022-09-06T08:33:43.551Z,2.75
2022-09-06T08:36:13.001Z,2.40
2022-09-06T08:38:43.027Z,2.20
2022-09-06T08:41:18.472Z,1.90
2022-09-06T08:46:49.627Z,1.67
2022-09-06T08:49:18.068Z,1.70
2022-09-06T08:52:05.861Z,2.10
2022-09-06T08:54:41.747Z,2.15
2022-09-06T08:57:18.047Z,1.90
2022-09-06T08:59:46.675Z,1.70
2022-09-06T09:02:18.546Z,2.08
2022-09-06T09:04:53.583Z,1.90
2022-09-06T09:07:42.759Z,2.13
2022-09-06T09:10:20.307Z,1.92
2022-09-06T09:12:50.007Z,1.80
2022-09-06T09:15:21.030Z,1.85
2022-09-06T09:17:52.267Z,1.67
2022-09-06T09:20:21.234Z,1.70
2022-09-06T09:22:49.883Z,1.75
2022-09-06T09:25:23.797Z,1.60
2022-09-06T09:27:57.675Z,1.20
2022-09-06T09:33:25.947Z,1.45
2022-09-06T09:35:54.690Z,1.58
2022-09-06T09:38:28.026Z,1.20
2022-09-06T09:40:59.917Z,1.50
2022-09-06T09:43:32.323Z,1.42
2022-09-06T09:46:30.336Z,1.50
2022-09-06T09:49:08.546Z,1.83
2022-09-06T09:51:40.347Z,1.67
2022-09-06T09:54:11.560Z,1.50
2022-09-06T09:56:48.708Z,1.30
2022-09-06T09:59:25.911Z,2.05
2022-09-06T10:01:57.557Z,1.50
2022-09-06T10:04:48.766Z,1.30
2022-09-06T10:07:20.135Z,1.45
2022-09-06T10:09:51.171Z,1.77
2022-09-06T10:12:30.970Z,1.33
2022-09-06T10:15:03.583Z,1.70
2022-09-06T10:17:38.027Z,1.90
2022-09-06T10:20:09.593Z,1.33
2022-09-06T10:22:51.138Z,1.63
2022-09-06T10:25:49.045Z,1.52
2022-09-06T10:28:41.843Z,1.17
2022-09-06T10:31:38.882Z,1.40
2022-09-06T10:34:46.544Z,1.40
2022-09-06T10:37:30.438Z,1.52
2022-09-06T10:40:07.645Z,1.60
2022-09-06T10:42:45.157Z,1.55
2022-09-06T10:45:54.330Z,1.50
2022-09-06T10:48:29.522Z,1.40
2022-09-06T10:51:01.172Z,1.10
2022-09-06T10:53:44.890Z,1.05
2022-09-06T10:56:18.822Z,1.00
2022-09-06T11:01:47.636Z,0.75
2022-09-06T11:04:25.228Z,0.80
2022-09-06T11:07:00.388Z,0.80
2022-09-06T11:09:35.548Z,0.90
2022-09-06T11:12:12.089Z,0.80
2022-09-06T11:14:41.774Z,0.90
2022-09-06T11:17:29.302Z,0.70
2022-09-06T11:20:06.864Z,0.90
2022-09-06T11:23:25.942Z,0.90
2022-09-06T11:26:34.418Z,0.60
2022-09-06T11:29:09.140Z,0.60
2022-09-06T11:34:54.526Z,0.60
2022-09-06T11:37:29.058Z,0.70
2022-09-06T11:40:30.899Z,1.02
2022-09-06T11:43:47.968Z,1.10
2022-09-06T11:46:59.258Z,1.05
2022-09-06T11:49:40.021Z,0.70
2022-09-06T11:53:03.160Z,0.70
2022-09-06T11:55:39.297Z,0.60
2022-09-06T11:58:12.360Z,0.70
2022-09-06T12:00:41.386Z,0.63
2022-09-06T12:06:20.192Z,0.70
2022-09-06T12:08:52.625Z,0.75
2022-09-06T12:11:37.555Z,0.77
2022-09-06T12:14:09.448Z,0.60
2022-09-06T12:17:23.560Z,0.70
2022-09-06T12:19:54.177Z,0.50
2022-09-06T12:23:02.084Z,0.80
2022-09-06T12:25:59.890Z,0.60
2022-09-06T12:28:41.778Z,0.60
2022-09-06T12:31:32.232Z,0.63
2022-09-06T12:34:07.871Z,0.70
2022-09-06T12:36:36.614Z,0.60
2022-09-06T12:39:12.030Z,0.80
2022-09-06T12:41:45.206Z,0.60
2022-09-06T12:44:17.709Z,0.60
2022-09-06T12:46:52.068Z,0.60
2022-09-06T12:49:23.440Z,0.80
2022-09-06T12:51:52.513Z,0.70
2022-09-06T12:54:24.600Z,0.50
2022-09-06T12:56:59.509Z,0.70
2022-09-06T12:59:27.992Z,0.38
2022-09-06T13:02:05.126Z,0.52
2022-09-06T13:04:39.804Z,0.60
2022-09-06T13:07:12.098Z,0.70
2022-09-06T13:09:44.788Z,0.75
2022-09-06T13:12:32.935Z,0.47
2022-09-06T13:15:09.046Z,0.60
2022-09-06T13:17:38.423Z,0.50
2022-09-06T13:20:17.017Z,0.50
2022-09-06T13:22:48.021Z,0.50
2022-09-06T13:25:25.366Z,0.40
2022-09-06T13:27:58.577Z,0.50
2022-09-06T13:30:42.006Z,0.70
2022-09-06T13:33:25.834Z,0.65
2022-09-06T13:36:23.049Z,0.50
2022-09-06T13:38:51.858Z,0.77
2022-09-06T13:41:44.882Z,0.57
2022-09-06T13:44:29.711Z,0.47
2022-09-06T13:46:58.178Z,0.40
2022-09-06T13:49:27.192Z,0.60
2022-09-06T13:52:00.196Z,0.40
2022-09-06T13:54:29.060Z,0.40
2022-09-06T13:56:58.087Z,0.52
2022-09-06T13:59:28.808Z,0.50
2022-09-06T14:02:02.932Z,0.30
2022-09-06T14:04:31.999Z,0.47
2022-09-06T14:07:00.550Z,0.40
2022-09-06T14:09:29.366Z,0.22
2022-09-06T14:11:57.861Z,0.50
2022-09-06T14:14:27.582Z,0.40
2022-09-06T14:16:56.070Z,0.50
2022-09-06T14:19:24.826Z,0.45
2022-09-06T14:21:53.514Z,0.45
2022-09-06T14:24:22.237Z,0.55
2022-09-06T14:26:50.565Z,0.38
2022-09-06T14:29:19.164Z,0.57
2022-09-06T14:31:49.459Z,0.60
2022-09-06T14:34:17.860Z,0.40
2022-09-06T14:36:46.202Z,0.50
2022-09-06T14:39:14.510Z,0.52
2022-09-06T14:41:43.009Z,0.30
2022-09-06T14:44:11.844Z,0.38
2022-09-06T14:46:40.290Z,0.40
2022-09-06T14:49:11.697Z,0.47
2022-09-06T14:51:40.961Z,0.40
2022-09-06T14:54:12.034Z,0.50
2022-09-06T14:56:43.660Z,0.50
2022-09-06T14:59:12.637Z,0.50
2022-09-06T15:01:41.662Z,0.40
2022-09-06T15:04:12.888Z,0.38
2022-09-06T15:06:47.038Z,0.40
2022-09-06T15:09:15.837Z,0.40
2022-09-06T15:11:46.768Z,0.50
2022-09-06T15:14:17.961Z,0.43
2022-09-06T15:16:48.233Z,0.40
2022-09-06T15:19:20.518Z,0.40
2022-09-06T15:21:49.046Z,0.40
2022-09-06T15:24:17.440Z,0.35
2022-09-06T15:26:45.999Z,0.45
2022-09-06T15:29:15.541Z,0.30
2022-09-06T15:31:50.072Z,0.30
2022-09-06T15:34:22.014Z,0.32
2022-09-06T15:36:50.266Z,0.50
2022-09-06T15:39:19.083Z,0.40
2022-09-06T15:41:47.473Z,0.40
2022-09-06T15:44:18.765Z,0.43
2022-09-06T15:46:50.596Z,0.40
2022-09-06T15:49:27.623Z,0.40
2022-09-06T15:51:57.253Z,0.35
2022-09-06T15:54:46.169Z,0.30
2022-09-06T15:57:16.430Z,0.28
2022-09-06T15:59:45.209Z,0.40
2022-09-06T16:02:14.573Z,0.28
2022-09-06T16:04:44.318Z,0.40
2022-09-06T16:07:12.644Z,0.50
2022-09-06T16:09:41.164Z,0.40
2022-09-06T16:12:10.256Z,0.45
2022-09-06T16:14:39.402Z,0.35
2022-09-06T16:17:07.701Z,0.93
2022-09-06T16:19:36.031Z,0.70
2022-09-06T16:22:05.688Z,0.40
2022-09-06T16:24:34.082Z,0.30
2022-09-06T16:27:02.302Z,0.20
2022-09-06T16:29:31.814Z,0.47
2022-09-06T16:32:00.663Z,0.30
2022-09-06T16:34:28.983Z,0.30
2022-09-06T16:36:57.379Z,0.40
2022-09-06T16:39:27.765Z,0.30
2022-09-06T16:41:56.438Z,0.32
2022-09-06T16:44:24.810Z,0.30
2022-09-06T16:46:53.694Z,0.30
2022-09-06T16:49:22.220Z,0.30
2022-09-06T16:51:52.254Z,0.32
2022-09-06T16:54:20.764Z,0.30
2022-09-06T16:56:50.569Z,0.30
2022-09-06T16:59:18.942Z,0.20
2022-09-06T17:01:47.478Z,0.40
2022-09-06T17:04:16.334Z,0.43
2022-09-06T17:06:47.451Z,0.32
2022-09-06T17:09:19.082Z,0.20
2022-09-06T17:11:50.105Z,0.22
2022-09-06T17:14:19.262Z,0.30
2022-09-06T17:17:05.847Z,0.50
2022-09-06T17:19:37.567Z,0.30
2022-09-06T17:22:06.290Z,0.20
2022-09-06T17:24:34.851Z,0.32
2022-09-06T17:27:06.804Z,0.40
2022-09-06T17:29:35.362Z,0.30
2022-09-06T17:32:09.915Z,0.40
2022-09-06T17:34:38.805Z,0.40
2022-09-06T17:37:07.191Z,0.60
2022-09-06T17:39:35.691Z,0.43
2022-09-06T17:42:06.173Z,0.60
2022-09-06T17:44:34.637Z,0.70
2022-09-06T17:47:13.598Z,0.50
2022-09-06T17:49:42.493Z,0.45
2022-09-06T17:52:11.086Z,0.50
2022-09-06T17:54:39.398Z,0.80
2022-09-06T17:57:09.045Z,0.45
2022-09-06T17:59:38.382Z,0.63
2022-09-06T18:02:08.869Z,0.80
2022-09-06T18:04:37.368Z,0.77
2022-09-06T18:07:05.787Z,0.70
2022-09-06T18:09:33.989Z,0.68
2022-09-06T18:12:02.180Z,0.63
2022-09-06T18:14:31.860Z,0.50
2022-09-06T18:17:00.266Z,0.65
2022-09-06T18:19:32.158Z,0.47
2022-09-06T18:22:00.543Z,0.60
2022-09-06T18:24:29.091Z,0.50
2022-09-06T18:26:57.342Z,0.70
2022-09-06T18:29:25.594Z,0.70
2022-09-06T18:31:55.330Z,0.70
2022-09-06T18:34:23.735Z,3.65
2022-09-06T18:36:53.564Z,1.05
2022-09-06T18:39:21.792Z,0.90
2022-09-06T18:42:03.890Z,1.05
2022-09-06T18:44:34.234Z,0.90
2022-09-06T18:47:07.195Z,0.90
2022-09-06T18:49:39.479Z,1.10
2022-09-06T18:52:10.234Z,0.77
2022-09-06T18:54:39.176Z,0.80
2022-09-06T18:57:07.497Z,0.90
2022-09-06T18:59:35.777Z,0.60
2022-09-06T19:02:05.696Z,0.80
2022-09-06T19:04:33.967Z,0.80
2022-09-06T19:07:03.896Z,0.85
2022-09-06T19:09:32.333Z,1.10
2022-09-06T19:12:00.586Z,1.27
2022-09-06T19:14:29.073Z,1.10
2022-09-06T19:16:57.274Z,0.88
2022-09-06T19:19:27.121Z,1.00
2022-09-06T19:21:55.308Z,0.90
2022-09-06T19:24:24.638Z,0.77
2022-09-06T19:26:55.191Z,0.80
2022-09-06T19:29:23.568Z,0.90
2022-09-06T19:31:52.245Z,1.08
2022-09-06T19:34:20.598Z,0.73
2022-09-06T19:36:52.072Z,0.80
2022-09-06T19:39:21.500Z,0.98
2022-09-06T19:41:50.590Z,1.30
2022-09-06T19:44:20.669Z,1.60
2022-09-06T19:46:49.266Z,1.38
2022-09-06T19:49:19.167Z,1.33
2022-09-06T19:51:50.806Z,1.45
2022-09-06T19:54:19.569Z,1.30
2022-09-06T19:56:48.369Z,2.10
2022-09-06T19:59:17.702Z,2.10
2022-09-06T20:01:47.268Z,1.85
2022-09-06T20:04:16.411Z,1.83
2022-09-06T20:06:45.152Z,1.77
2022-09-06T20:09:16.520Z,1.48
2022-09-06T20:11:44.970Z,1.35
2022-09-06T20:14:14.170Z,1.40
2022-09-06T20:16:43.342Z,1.40
2022-09-06T20:19:14.856Z,1.90
2022-09-06T20:21:43.156Z,1.50
2022-09-06T20:24:11.470Z,1.75
2022-09-06T20:26:41.429Z,1.92
2022-09-06T20:29:10.113Z,1.77
2022-09-06T20:31:39.404Z,1.98
2022-09-06T20:34:08.389Z,2.05
2022-09-06T20:36:37.077Z,1.98
2022-09-06T20:39:05.772Z,1.70
2022-09-06T20:41:34.848Z,1.67
2022-09-06T20:44:04.842Z,1.70
2022-09-06T20:46:36.008Z,2.05
2022-09-06T20:49:05.366Z,1.77
2022-09-06T20:51:35.388Z,1.65
2022-09-06T20:54:06.067Z,1.73
2022-09-06T20:56:36.307Z,2.13
2022-09-06T20:59:09.058Z,2.20
2022-09-06T21:01:41.738Z,2.40
2022-09-06T21:04:11.862Z,1.85
2022-09-06T21:06:41.261Z,2.00
2022-09-06T21:09:13.213Z,3.10
2022-09-06T21:11:42.717Z,2.75
2022-09-06T21:14:13.030Z,3.35
2022-09-06T21:16:41.577Z,3.00
2022-09-06T21:19:12.032Z,2.63
2022-09-06T21:21:41.248Z,2.70
2022-09-06T21:24:11.608Z,2.65
2022-09-06T21:26:40.942Z,2.25
2022-09-06T21:29:09.281Z,2.50
2022-09-06T21:31:39.393Z,2.28
2022-09-06T21:34:14.190Z,2.13
2022-09-06T21:36:44.819Z,1.95
2022-09-06T21:39:13.902Z,2.13
2022-09-06T21:41:44.071Z,1.95
2022-09-06T21:44:13.177Z,2.05
2022-09-06T21:46:43.239Z,1.90
2022-09-06T21:49:13.770Z,1.80
2022-09-06T21:51:42.789Z,1.67
2022-09-06T21:54:11.390Z,1.35
2022-09-06T21:56:40.654Z,1.40
2022-09-06T21:59:09.809Z,1.40
2022-09-06T22:01:40.174Z,1.27
2022-09-06T22:04:11.785Z,1.48
2022-09-06T22:06:40.734Z,1.60
2022-09-06T22:09:11.483Z,1.17
2022-09-06T22:11:41.909Z,1.60
2022-09-06T22:14:13.163Z,1.48
2022-09-06T22:16:42.405Z,1.77
2022-09-06T22:19:12.926Z,2.17
2022-09-06T22:21:41.229Z,1.77
2022-09-06T22:24:12.184Z,2.10
2022-09-06T22:26:42.220Z,2.08
2022-09-06T22:29:13.474Z,2.17
2022-09-06T22:31:42.230Z,1.92
2022-09-06T22:34:12.017Z,1.83
2022-09-06T22:36:40.313Z,2.20
2022-09-06T22:39:09.530Z,2.15
2022-09-06T22:41:38.109Z,1.95
2022-09-06T22:44:06.876Z,2.40
2022-09-06T22:46:35.520Z,2.40
2022-09-06T22:49:05.320Z,2.40
2022-09-06T22:51:34.931Z,2.53
2022-09-06T22:54:03.157Z,2.70
2022-09-06T22:56:31.510Z,2.75
2022-09-06T22:59:01.199Z,2.35
2022-09-06T23:01:30.378Z,2.35
2022-09-06T23:03:58.581Z,2.70
2022-09-06T23:06:26.970Z,2.67
2022-09-06T23:08:56.550Z,2.60
2022-09-06T23:11:24.746Z,3.00
2022-09-06T23:13:57.295Z,2.95
2022-09-06T23:16:26.919Z,2.53
2022-09-06T23:18:55.785Z,2.90
2022-09-06T23:21:26.376Z,2.70
2022-09-06T23:23:57.139Z,2.63
2022-09-06T23:26:31.538Z,3.15
2022-09-06T23:29:00.137Z,2.42
2022-09-06T23:31:31.393Z,2.38
2022-09-06T23:34:01.979Z,2.35
2022-09-06T23:36:30.816Z,2.70
2022-09-06T23:39:01.794Z,2.80
2022-09-06T23:41:30.079Z,3.05
2022-09-06T23:43:58.411Z,2.70
2022-09-06T23:46:26.966Z,2.58
2022-09-06T23:48:55.201Z,2.55
2022-09-06T23:51:23.547Z,2.10
2022-09-06T23:53:51.789Z,1.80
2022-09-06T23:56:22.354Z,1.92
2022-09-06T23:58:50.539Z,2.08
